sensor_id;sensor_type;location;lat;lon;timestamp;pressure;altitude;pressure_sealevel;temperature;humidity
80103;BME280;69865;47.648;19.030;2024-01-30T00:00:29;102897.53;;;-3.08;100.00
80103;BME280;69865;47.648;19.030;2024-01-30T00:01:01;102888.91;;;-3.10;100.00
80103;BME280;69865;47.648;19.030;2024-01-30T00:01:33;102895.72;;;-3.14;100.00
80103;BME280;69865;47.648;19.030;2024-01-30T00:02:06;102895.75;;;-3.15;100.00
80103;BME280;69865;47.648;19.030;2024-01-30T00:02:41;102894.88;;;-3.16;100.00
80103;BME280;69865;47.648;19.030;2024-01-30T00:03:13;102896.56;;;-3.18;100.00
80103;BME280;69865;47.648;19.030;2024-01-30T00:03:45;102898.31;;;-3.14;100.00
80103;BME280;69865;47.648;19.030;2024-01-30T00:04:17;102896.63;;;-3.12;100.00
80103;BME280;69865;47.648;19.030;2024-01-30T00:04:49;102896.59;;;-3.16;100.00
80103;BME280;69865;47.648;19.030;2024-01-30T00:05:22;102903.47;;;-3.15;100.00
80103;BME280;69865;47.648;19.030;2024-01-30T00:05:54;102900.88;;;-3.17;100.00
80103;BME280;69865;47.648;19.030;2024-01-30T00:06:30;102894.88;;;-3.14;100.00
80103;BME280;69865;47.648;19.030;2024-01-30T00:07:02;102900.06;;;-3.13;100.00
80103;BME280;69865;47.648;19.030;2024-01-30T00:07:34;102898.31;;;-3.14;100.00
80103;BME280;69865;47.648;19.030;2024-01-30T00:08:07;102895.72;;;-3.14;100.00
80103;BME280;69865;47.648;19.030;2024-01-30T00:08:39;102903.50;;;-3.12;100.00
80103;BME280;69865;47.648;19.030;2024-01-30T00:09:11;102900.06;;;-3.13;100.00
80103;BME280;69865;47.648;19.030;2024-01-30T00:09:46;102898.34;;;-3.12;100.00
80103;BME280;69865;47.648;19.030;2024-01-30T00:10:19;102900.09;;;-3.08;100.00
80103;BME280;69865;47.648;19.030;2024-01-30T00:10:51;102900.06;;;-3.10;100.00
80103;BME280;69865;47.648;19.030;2024-01-30T00:11:23;102897.50;;;-3.10;100.00
80103;BME280;69865;47.648;19.030;2024-01-30T00:11:55;102899.22;;;-3.09;100.00
80103;BME280;69865;47.648;19.030;2024-01-30T00:12:27;102898.31;;;-3.14;100.00
80103;BME280;69865;47.648;19.030;2024-01-30T00:12:59;102901.75;;;-3.15;100.00
80103;BME280;69865;47.648;19.030;2024-01-30T00:13:32;102903.44;;;-3.17;100.00
80103;BME280;69865;47.648;19.030;2024-01-30T00:14:04;102893.13;;;-3.17;100.00
80103;BME280;69865;47.648;19.030;2024-01-30T00:14:36;102901.72;;;-3.16;100.00
80103;BME280;69865;47.648;19.030;2024-01-30T00:15:09;102900.00;;;-3.17;100.00
80103;BME280;69865;47.648;19.030;2024-01-30T00:15:41;102891.41;;;-3.18;100.00
80103;BME280;69865;47.648;19.030;2024-01-30T00:16:20;102898.25;;;-3.18;100.00
80103;BME280;69865;47.648;19.030;2024-01-30T00:16:55;102893.09;;;-3.23;100.00
80103;BME280;69865;47.648;19.030;2024-01-30T00:17:27;102898.28;;;-3.17;100.00
80103;BME280;69865;47.648;19.030;2024-01-30T00:17:59;102904.34;;;-3.15;100.00
80103;BME280;69865;47.648;19.030;2024-01-30T00:18:31;102901.72;;;-3.19;100.00
80103;BME280;69865;47.648;19.030;2024-01-30T00:19:04;102900.88;;;-3.17;100.00
80103;BME280;69865;47.648;19.030;2024-01-30T00:19:36;102903.47;;;-3.15;100.00
80103;BME280;69865;47.648;19.030;2024-01-30T00:20:09;102900.06;;;-3.13;100.00
80103;BME280;69865;47.648;19.030;2024-01-30T00:20:41;102904.22;;;-3.24;100.00
80103;BME280;69865;47.648;19.030;2024-01-30T00:21:14;102909.38;;;-3.22;100.00
80103;BME280;69865;47.648;19.030;2024-01-30T00:21:46;102911.13;;;-3.18;100.00
80103;BME280;69865;47.648;19.030;2024-01-30T00:22:18;102906.00;;;-3.18;100.00
80103;BME280;69865;47.648;19.030;2024-01-30T00:22:53;102908.53;;;-3.21;100.00
80103;BME280;69865;47.648;19.030;2024-01-30T00:23:25;102911.94;;;-3.27;100.00
80103;BME280;69865;47.648;19.030;2024-01-30T00:23:57;102911.91;;;-3.28;100.00
80103;BME280;69865;47.648;19.030;2024-01-30T00:24:30;102903.34;;;-3.27;100.00
80103;BME280;69865;47.648;19.030;2024-01-30T00:25:03;102905.88;;;-3.29;100.00
80103;BME280;69865;47.648;19.030;2024-01-30T00:25:36;102912.78;;;-3.28;100.00
80103;BME280;69865;47.648;19.030;2024-01-30T00:26:09;102909.34;;;-3.25;100.00
80103;BME280;69865;47.648;19.030;2024-01-30T00:26:41;102905.94;;;-3.24;100.00
80103;BME280;69865;47.648;19.030;2024-01-30T00:27:13;102912.78;;;-3.25;100.00
80103;BME280;69865;47.648;19.030;2024-01-30T00:27:45;102909.34;;;-3.27;100.00
80103;BME280;69865;47.648;19.030;2024-01-30T00:28:18;102913.59;;;-3.29;100.00
80103;BME280;69865;47.648;19.030;2024-01-30T00:28:50;102908.47;;;-3.29;100.00
80103;BME280;69865;47.648;19.030;2024-01-30T00:29:22;102912.75;;;-3.29;100.00
80103;BME280;69865;47.648;19.030;2024-01-30T00:29:54;102904.97;;;-3.33;100.00
80103;BME280;69865;47.648;19.030;2024-01-30T00:30:26;102905.91;;;-3.27;100.00
80103;BME280;69865;47.648;19.030;2024-01-30T00:30:59;102909.34;;;-3.27;100.00
80103;BME280;69865;47.648;19.030;2024-01-30T00:31:31;102910.22;;;-3.26;100.00
80103;BME280;69865;47.648;19.030;2024-01-30T00:32:04;102909.34;;;-3.25;100.00
80103;BME280;69865;47.648;19.030;2024-01-30T00:32:36;102896.50;;;-3.24;100.00
80103;BME280;69865;47.648;19.030;2024-01-30T00:33:09;102904.16;;;-3.32;100.00
80103;BME280;69865;47.648;19.030;2024-01-30T00:33:41;102900.75;;;-3.26;100.00
80103;BME280;69865;47.648;19.030;2024-01-30T00:34:13;102905.03;;;-3.28;100.00
80103;BME280;69865;47.648;19.030;2024-01-30T00:34:46;102911.84;;;-3.33;100.00
80103;BME280;69865;47.648;19.030;2024-01-30T00:35:18;102910.09;;;-3.36;100.00
80103;BME280;69865;47.648;19.030;2024-01-30T00:35:53;102907.50;;;-3.39;100.00
80103;BME280;69865;47.648;19.030;2024-01-30T00:36:25;102908.38;;;-3.37;100.00
80103;BME280;69865;47.648;19.030;2024-01-30T00:36:57;102910.97;;;-3.34;100.00
80103;BME280;69865;47.648;19.030;2024-01-30T00:37:30;102909.28;;;-3.30;100.00
80103;BME280;69865;47.648;19.030;2024-01-30T00:38:02;102904.13;;;-3.35;100.00
80103;BME280;69865;47.648;19.030;2024-01-30T00:38:35;102910.09;;;-3.36;100.00
80103;BME280;69865;47.648;19.030;2024-01-30T00:39:07;102914.38;;;-3.36;100.00
80103;BME280;69865;47.648;19.030;2024-01-30T00:39:39;102910.91;;;-3.38;100.00
80103;BME280;69865;47.648;19.030;2024-01-30T00:40:13;102912.66;;;-3.39;100.00
80103;BME280;69865;47.648;19.030;2024-01-30T00:40:45;102917.75;;;-3.42;100.00
80103;BME280;69865;47.648;19.030;2024-01-30T00:41:18;102914.31;;;-3.42;100.00
80103;BME280;69865;47.648;19.030;2024-01-30T00:41:53;102911.72;;;-3.42;100.00
80103;BME280;69865;47.648;19.030;2024-01-30T00:42:25;102915.22;;;-3.39;100.00
80103;BME280;69865;47.648;19.030;2024-01-30T00:42:57;102914.34;;;-3.41;100.00
80103;BME280;69865;47.648;19.030;2024-01-30T00:43:29;102912.59;;;-3.43;100.00
80103;BME280;69865;47.648;19.030;2024-01-30T00:44:01;102918.63;;;-3.43;100.00
80103;BME280;69865;47.648;19.030;2024-01-30T00:44:35;102916.03;;;-3.43;100.00
80103;BME280;69865;47.648;19.030;2024-01-30T00:45:12;102915.19;;;-3.40;100.00
80103;BME280;69865;47.648;19.030;2024-01-30T00:45:45;102915.19;;;-3.40;100.00
80103;BME280;69865;47.648;19.030;2024-01-30T00:46:17;102921.22;;;-3.38;100.00
80103;BME280;69865;47.648;19.030;2024-01-30T00:46:50;102912.66;;;-3.39;100.00
80103;BME280;69865;47.648;19.030;2024-01-30T00:47:22;102916.09;;;-3.37;100.00
80103;BME280;69865;47.648;19.030;2024-01-30T00:47:54;102917.84;;;-3.36;100.00
80103;BME280;69865;47.648;19.030;2024-01-30T00:48:26;102916.13;;;-3.34;100.00
80103;BME280;69865;47.648;19.030;2024-01-30T00:48:58;102913.56;;;-3.35;100.00
80103;BME280;69865;47.648;19.030;2024-01-30T00:49:31;102915.25;;;-3.34;100.00
80103;BME280;69865;47.648;19.030;2024-01-30T00:50:03;102909.28;;;-3.35;100.00
80103;BME280;69865;47.648;19.030;2024-01-30T00:50:36;102908.41;;;-3.35;100.00
80103;BME280;69865;47.648;19.030;2024-01-30T00:51:08;102909.28;;;-3.33;100.00
80103;BME280;69865;47.648;19.030;2024-01-30T00:51:40;102910.16;;;-3.31;100.00
80103;BME280;69865;47.648;19.030;2024-01-30T00:52:12;102907.63;;;-3.28;100.00
80103;BME280;69865;47.648;19.030;2024-01-30T00:52:44;102914.47;;;-3.28;100.00
80103;BME280;69865;47.648;19.030;2024-01-30T00:53:16;102911.88;;;-3.30;100.00
80103;BME280;69865;47.648;19.030;2024-01-30T00:53:49;102905.88;;;-3.29;100.00
80103;BME280;69865;47.648;19.030;2024-01-30T00:54:21;102905.91;;;-3.27;100.00
80103;BME280;69865;47.648;19.030;2024-01-30T00:54:53;102908.47;;;-3.26;100.00
80103;BME280;69865;47.648;19.030;2024-01-30T00:55:27;102907.63;;;-3.28;100.00
80103;BME280;69865;47.648;19.030;2024-01-30T00:55:59;102901.63;;;-3.25;100.00
80103;BME280;69865;47.648;19.030;2024-01-30T00:56:31;102903.31;;;-3.26;100.00
80103;BME280;69865;47.648;19.030;2024-01-30T00:57:04;102891.31;;;-3.25;100.00
80103;BME280;69865;47.648;19.030;2024-01-30T00:57:39;102904.19;;;-3.25;100.00
80103;BME280;69865;47.648;19.030;2024-01-30T00:58:15;102898.19;;;-3.27;100.00
80103;BME280;69865;47.648;19.030;2024-01-30T00:58:47;102900.72;;;-3.29;100.00
80103;BME280;69865;47.648;19.030;2024-01-30T00:59:19;102898.16;;;-3.30;100.00
80103;BME280;69865;47.648;19.030;2024-01-30T00:59:51;102903.31;;;-3.30;100.00
80103;BME280;69865;47.648;19.030;2024-01-30T01:00:26;102897.31;;;-3.28;100.00
80103;BME280;69865;47.648;19.030;2024-01-30T01:00:58;102895.53;;;-3.32;100.00
80103;BME280;69865;47.648;19.030;2024-01-30T01:01:31;102904.13;;;-3.33;100.00
80103;BME280;69865;47.648;19.030;2024-01-30T01:02:03;102904.97;;;-3.33;100.00
80103;BME280;69865;47.648;19.030;2024-01-30T01:02:37;102898.16;;;-3.30;100.00
80103;BME280;69865;47.648;19.030;2024-01-30T01:03:09;102896.41;;;-3.30;100.00
80103;BME280;69865;47.648;19.030;2024-01-30T01:03:41;102893.03;;;-3.26;100.00
80103;BME280;69865;47.648;19.030;2024-01-30T01:04:14;102894.75;;;-3.25;100.00
80103;BME280;69865;47.648;19.030;2024-01-30T01:04:46;102890.44;;;-3.26;100.00
80103;BME280;69865;47.648;19.030;2024-01-30T01:05:18;102890.47;;;-3.24;100.00
80103;BME280;69865;47.648;19.030;2024-01-30T01:05:50;102874.00;;;-3.37;100.00
80103;BME280;69865;47.648;19.030;2024-01-30T01:06:23;102899.91;;;-3.26;100.00
80103;BME280;69865;47.648;19.030;2024-01-30T01:06:55;102890.44;;;-3.26;100.00
80103;BME280;69865;47.648;19.030;2024-01-30T01:07:27;102882.78;;;-3.23;100.00
80103;BME280;69865;47.648;19.030;2024-01-30T01:07:59;102893.06;;;-3.24;100.00
80103;BME280;69865;47.648;19.030;2024-01-30T01:08:31;102889.59;;;-3.28;100.00
80103;BME280;69865;47.648;19.030;2024-01-30T01:09:03;102899.00;;;-3.30;100.00
80103;BME280;69865;47.648;19.030;2024-01-30T01:09:39;102897.34;;;-3.26;100.00
80103;BME280;69865;47.648;19.030;2024-01-30T01:10:11;102896.41;;;-3.30;100.00
80103;BME280;69865;47.648;19.030;2024-01-30T01:10:45;102897.34;;;-3.26;100.00
80103;BME280;69865;47.648;19.030;2024-01-30T01:11:17;102893.88;;;-3.25;100.00
80103;BME280;69865;47.648;19.030;2024-01-30T01:11:49;102886.13;;;-3.28;100.00
80103;BME280;69865;47.648;19.030;2024-01-30T01:12:21;102886.19;;;-3.24;100.00
80103;BME280;69865;47.648;19.030;2024-01-30T01:12:53;102897.38;;;-3.22;100.00
80103;BME280;69865;47.648;19.030;2024-01-30T01:13:25;102887.00;;;-3.28;100.00
80103;BME280;69865;47.648;19.030;2024-01-30T01:13:58;102892.13;;;-3.29;100.00
80103;BME280;69865;47.648;19.030;2024-01-30T01:14:30;102894.72;;;-3.28;100.00
80103;BME280;69865;47.648;19.030;2024-01-30T01:15:02;102888.72;;;-3.28;100.00
80103;BME280;69865;47.648;19.030;2024-01-30T01:15:38;102887.03;;;-3.25;100.00
80103;BME280;69865;47.648;19.030;2024-01-30T01:16:10;102889.59;;;-3.25;100.00
80103;BME280;69865;47.648;19.030;2024-01-30T01:16:42;102893.09;;;-3.23;100.00
80103;BME280;69865;47.648;19.030;2024-01-30T01:17:14;102893.09;;;-3.21;100.00
80103;BME280;69865;47.648;19.030;2024-01-30T01:17:46;102889.59;;;-3.25;100.00
80103;BME280;69865;47.648;19.030;2024-01-30T01:18:18;102887.03;;;-3.26;100.00
80103;BME280;69865;47.648;19.030;2024-01-30T01:18:50;102896.47;;;-3.27;100.00
80103;BME280;69865;47.648;19.030;2024-01-30T01:19:23;102887.03;;;-3.26;100.00
80103;BME280;69865;47.648;19.030;2024-01-30T01:19:55;102894.75;;;-3.25;100.00
80103;BME280;69865;47.648;19.030;2024-01-30T01:20:27;102887.94;;;-3.21;100.00
80103;BME280;69865;47.648;19.030;2024-01-30T01:20:59;102898.25;;;-3.23;100.00
80103;BME280;69865;47.648;19.030;2024-01-30T01:21:31;102893.09;;;-3.23;100.00
80103;BME280;69865;47.648;19.030;2024-01-30T01:22:03;102889.59;;;-3.25;100.00
80103;BME280;69865;47.648;19.030;2024-01-30T01:22:36;102893.03;;;-3.26;100.00
80103;BME280;69865;47.648;19.030;2024-01-30T01:23:08;102896.41;;;-3.30;100.00
80103;BME280;69865;47.648;19.030;2024-01-30T01:23:40;102894.72;;;-3.31;100.00
80103;BME280;69865;47.648;19.030;2024-01-30T01:24:12;102893.75;;;-3.38;100.00
80103;BME280;69865;47.648;19.030;2024-01-30T01:24:44;102905.78;;;-3.37;100.00
80103;BME280;69865;47.648;19.030;2024-01-30T01:25:17;102894.69;;;-3.33;100.00
80103;BME280;69865;47.648;19.030;2024-01-30T01:25:51;102898.13;;;-3.32;100.00
80103;BME280;69865;47.648;19.030;2024-01-30T01:26:23;102899.88;;;-3.31;100.00
80103;BME280;69865;47.648;19.030;2024-01-30T01:26:55;102897.25;;;-3.33;100.00
80103;BME280;69865;47.648;19.030;2024-01-30T01:27:27;102898.84;;;-3.42;100.00
80103;BME280;69865;47.648;19.030;2024-01-30T01:27:59;102896.34;;;-3.39;100.00
80103;BME280;69865;47.648;19.030;2024-01-30T01:28:31;102894.63;;;-3.39;100.00
80103;BME280;69865;47.648;19.030;2024-01-30T01:29:04;102900.59;;;-3.41;100.00
80103;BME280;69865;47.648;19.030;2024-01-30T01:29:37;102896.28;;;-3.44;100.00
80103;BME280;69865;47.648;19.030;2024-01-30T01:30:11;102889.31;;;-3.49;100.00
80103;BME280;69865;47.648;19.030;2024-01-30T01:30:43;102890.16;;;-3.50;100.00
80103;BME280;69865;47.648;19.030;2024-01-30T01:31:16;102886.69;;;-3.55;100.00
80103;BME280;69865;47.648;19.030;2024-01-30T01:31:48;102896.06;;;-3.60;100.00
80103;BME280;69865;47.648;19.030;2024-01-30T01:32:20;102889.09;;;-3.67;100.00
80103;BME280;69865;47.648;19.030;2024-01-30T01:32:52;102893.34;;;-3.71;100.00
80103;BME280;69865;47.648;19.030;2024-01-30T01:33:24;102887.31;;;-3.74;100.00
80103;BME280;69865;47.648;19.030;2024-01-30T01:33:57;102892.47;;;-3.74;100.00
80103;BME280;69865;47.648;19.030;2024-01-30T01:34:35;102887.28;;;-3.76;100.00
80103;BME280;69865;47.648;19.030;2024-01-30T01:35:10;102890.69;;;-3.78;99.79
80103;BME280;69865;47.648;19.030;2024-01-30T01:35:42;102900.84;;;-3.88;99.86
80103;BME280;69865;47.648;19.030;2024-01-30T01:36:14;102903.28;;;-3.97;100.00
80103;BME280;69865;47.648;19.030;2024-01-30T01:36:46;102892.16;;;-3.96;100.00
80103;BME280;69865;47.648;19.030;2024-01-30T01:37:19;102894.63;;;-4.02;100.00
80103;BME280;69865;47.648;19.030;2024-01-30T01:37:52;102901.47;;;-4.04;100.00
80103;BME280;69865;47.648;19.030;2024-01-30T01:38:24;102899.75;;;-4.05;100.00
80103;BME280;69865;47.648;19.030;2024-01-30T01:38:56;102901.44;;;-4.05;100.00
80103;BME280;69865;47.648;19.030;2024-01-30T01:39:28;102898.00;;;-4.07;100.00
80103;BME280;69865;47.648;19.030;2024-01-30T01:40:00;102899.66;;;-4.11;100.00
80103;BME280;69865;47.648;19.030;2024-01-30T01:40:32;102896.22;;;-4.11;100.00
80103;BME280;69865;47.648;19.030;2024-01-30T01:41:06;102897.06;;;-4.12;100.00
80103;BME280;69865;47.648;19.030;2024-01-30T01:41:38;102891.03;;;-4.14;100.00
80103;BME280;69865;47.648;19.030;2024-01-30T01:42:10;102896.13;;;-4.17;100.00
80103;BME280;69865;47.648;19.030;2024-01-30T01:42:42;102896.94;;;-4.20;100.00
80103;BME280;69865;47.648;19.030;2024-01-30T01:43:15;102897.78;;;-4.21;100.00
80103;BME280;69865;47.648;19.030;2024-01-30T01:43:47;102890.81;;;-4.28;100.00
80103;BME280;69865;47.648;19.030;2024-01-30T01:44:19;102893.44;;;-4.27;100.00
80103;BME280;69865;47.648;19.030;2024-01-30T01:44:51;102905.44;;;-4.26;100.00
80103;BME280;69865;47.648;19.030;2024-01-30T01:45:23;102897.66;;;-4.30;100.00
80103;BME280;69865;47.648;19.030;2024-01-30T01:45:56;102899.38;;;-4.31;100.00
80103;BME280;69865;47.648;19.030;2024-01-30T01:46:30;102899.34;;;-4.32;100.00
80103;BME280;69865;47.648;19.030;2024-01-30T01:47:04;102897.53;;;-4.38;100.00
80103;BME280;69865;47.648;19.030;2024-01-30T01:47:37;102898.34;;;-4.40;100.00
80103;BME280;69865;47.648;19.030;2024-01-30T01:48:09;102904.31;;;-4.41;100.00
80103;BME280;69865;47.648;19.030;2024-01-30T01:48:42;102893.16;;;-4.42;100.00
80103;BME280;69865;47.648;19.030;2024-01-30T01:49:15;102894.03;;;-4.43;100.00
80103;BME280;69865;47.648;19.030;2024-01-30T01:49:47;102896.53;;;-4.46;100.00
80103;BME280;69865;47.648;19.030;2024-01-30T01:50:21;102901.66;;;-4.47;100.00
80103;BME280;69865;47.648;19.030;2024-01-30T01:50:54;102893.09;;;-4.48;100.00
80103;BME280;69865;47.648;19.030;2024-01-30T01:51:27;102897.41;;;-4.47;100.00
80103;BME280;69865;47.648;19.030;2024-01-30T01:52:00;102896.56;;;-4.44;100.00
80103;BME280;69865;47.648;19.030;2024-01-30T01:52:33;102899.97;;;-4.47;100.00
80103;BME280;69865;47.648;19.030;2024-01-30T01:53:07;102891.38;;;-4.47;100.00
80103;BME280;69865;47.648;19.030;2024-01-30T01:53:40;102901.72;;;-4.44;100.00
80103;BME280;69865;47.648;19.030;2024-01-30T01:54:14;102895.69;;;-4.46;100.00
80103;BME280;69865;47.648;19.030;2024-01-30T01:54:46;102897.34;;;-4.48;100.00
80103;BME280;69865;47.648;19.030;2024-01-30T01:55:21;102896.44;;;-4.52;100.00
80103;BME280;69865;47.648;19.030;2024-01-30T01:55:54;102895.63;;;-4.51;100.00
80103;BME280;69865;47.648;19.030;2024-01-30T01:56:29;102895.56;;;-4.52;100.00
80103;BME280;69865;47.648;19.030;2024-01-30T01:57:03;102896.38;;;-4.56;100.00
80103;BME280;69865;47.648;19.030;2024-01-30T01:57:36;102895.53;;;-4.55;100.00
80103;BME280;69865;47.648;19.030;2024-01-30T01:58:09;102898.09;;;-4.55;100.00
80103;BME280;69865;47.648;19.030;2024-01-30T01:58:43;102902.41;;;-4.54;100.00
80103;BME280;69865;47.648;19.030;2024-01-30T01:59:18;102898.06;;;-4.57;100.00
80103;BME280;69865;47.648;19.030;2024-01-30T01:59:51;102898.94;;;-4.58;100.00
80103;BME280;69865;47.648;19.030;2024-01-30T02:00:23;102898.94;;;-4.56;100.00
80103;BME280;69865;47.648;19.030;2024-01-30T02:00:57;102893.84;;;-4.55;100.00
80103;BME280;69865;47.648;19.030;2024-01-30T02:01:31;102894.66;;;-4.56;100.00
80103;BME280;69865;47.648;19.030;2024-01-30T02:02:04;102898.91;;;-4.59;100.00
80103;BME280;69865;47.648;19.030;2024-01-30T02:02:39;102895.41;;;-4.63;100.00
80103;BME280;69865;47.648;19.030;2024-01-30T02:03:13;102903.09;;;-4.66;100.00
80103;BME280;69865;47.648;19.030;2024-01-30T02:03:47;102892.75;;;-4.67;100.00
80103;BME280;69865;47.648;19.030;2024-01-30T02:04:19;102898.72;;;-4.70;100.00
80103;BME280;69865;47.648;19.030;2024-01-30T02:04:52;102894.38;;;-4.72;100.00
80103;BME280;69865;47.648;19.030;2024-01-30T02:05:25;102893.50;;;-4.75;100.00
80103;BME280;69865;47.648;19.030;2024-01-30T02:05:58;102896.88;;;-4.77;100.00
80103;BME280;69865;47.648;19.030;2024-01-30T02:06:31;102899.44;;;-4.79;100.00
80103;BME280;69865;47.648;19.030;2024-01-30T02:07:04;102892.50;;;-4.81;100.00
80103;BME280;69865;47.648;19.030;2024-01-30T02:07:37;102889.94;;;-4.81;100.00
80103;BME280;69865;47.648;19.030;2024-01-30T02:08:09;102896.88;;;-4.77;100.00
80103;BME280;69865;47.648;19.030;2024-01-30T02:08:42;102896.06;;;-4.75;100.00
80103;BME280;69865;47.648;19.030;2024-01-30T02:09:14;102895.28;;;-4.69;100.00
80103;BME280;69865;47.648;19.030;2024-01-30T02:09:46;102890.19;;;-4.67;100.00
80103;BME280;69865;47.648;19.030;2024-01-30T02:10:18;102891.03;;;-4.68;100.00
80103;BME280;69865;47.648;19.030;2024-01-30T02:10:50;102899.69;;;-4.63;100.00
80103;BME280;69865;47.648;19.030;2024-01-30T02:11:23;102896.38;;;-4.56;100.00
80103;BME280;69865;47.648;19.030;2024-01-30T02:11:57;102882.75;;;-4.51;100.00
80103;BME280;69865;47.648;19.030;2024-01-30T02:12:29;102890.47;;;-4.51;100.00
80103;BME280;69865;47.648;19.030;2024-01-30T02:13:01;102888.78;;;-4.50;100.00
80103;BME280;69865;47.648;19.030;2024-01-30T02:13:33;102885.38;;;-4.48;100.00
80103;BME280;69865;47.648;19.030;2024-01-30T02:14:06;102892.25;;;-4.45;100.00
80103;BME280;69865;47.648;19.030;2024-01-30T02:14:44;102888.09;;;-4.39;100.00
80103;BME280;69865;47.648;19.030;2024-01-30T02:15:17;102886.34;;;-4.40;100.00
80103;BME280;69865;47.648;19.030;2024-01-30T02:15:49;102892.38;;;-4.38;100.00
80103;BME280;69865;47.648;19.030;2024-01-30T02:16:22;102885.56;;;-4.36;100.00
80103;BME280;69865;47.648;19.030;2024-01-30T02:16:54;102883.00;;;-4.36;100.00
80103;BME280;69865;47.648;19.030;2024-01-30T02:17:26;102888.22;;;-4.31;100.00
80103;BME280;69865;47.648;19.030;2024-01-30T02:17:58;102886.53;;;-4.28;100.00
80103;BME280;69865;47.648;19.030;2024-01-30T02:18:30;102884.00;;;-4.26;100.00
80103;BME280;69865;47.648;19.030;2024-01-30T02:19:02;102889.16;;;-4.26;100.00
80103;BME280;69865;47.648;19.030;2024-01-30T02:19:34;102886.63;;;-4.21;100.00
80103;BME280;69865;47.648;19.030;2024-01-30T02:20:07;102880.59;;;-4.23;100.00
80103;BME280;69865;47.648;19.030;2024-01-30T02:20:40;102889.16;;;-4.24;100.00
80103;BME280;69865;47.648;19.030;2024-01-30T02:21:14;102888.28;;;-4.25;100.00
80103;BME280;69865;47.648;19.030;2024-01-30T02:21:46;102884.91;;;-4.21;100.00
80103;BME280;69865;47.648;19.030;2024-01-30T02:22:19;102888.41;;;-4.19;100.00
80103;BME280;69865;47.648;19.030;2024-01-30T02:22:52;102881.50;;;-4.20;100.00
80103;BME280;69865;47.648;19.030;2024-01-30T02:23:26;102887.56;;;-4.16;100.00
80103;BME280;69865;47.648;19.030;2024-01-30T02:23:59;102883.25;;;-4.17;100.00
80103;BME280;69865;47.648;19.030;2024-01-30T02:24:33;102883.25;;;-4.19;100.00
80103;BME280;69865;47.648;19.030;2024-01-30T02:25:13;102884.91;;;-4.21;100.00
80103;BME280;69865;47.648;19.030;2024-01-30T02:25:45;102880.69;;;-4.19;100.00
80103;BME280;69865;47.648;19.030;2024-01-30T02:26:17;102884.97;;;-4.18;100.00
80103;BME280;69865;47.648;19.030;2024-01-30T02:26:49;102885.91;;;-4.13;100.00
80103;BME280;69865;47.648;19.030;2024-01-30T02:27:21;102879.03;;;-4.12;100.00
80103;BME280;69865;47.648;19.030;2024-01-30T02:27:53;102884.25;;;-4.08;100.00
80103;BME280;69865;47.648;19.030;2024-01-30T02:28:26;102884.31;;;-4.06;100.00
80103;BME280;69865;47.648;19.030;2024-01-30T02:28:58;102881.75;;;-4.03;100.00
80103;BME280;69865;47.648;19.030;2024-01-30T02:29:30;102878.34;;;-4.02;100.00
80103;BME280;69865;47.648;19.030;2024-01-30T02:30:03;102877.47;;;-4.01;100.00
80103;BME280;69865;47.648;19.030;2024-01-30T02:30:35;102882.63;;;-4.01;100.00
80103;BME280;69865;47.648;19.030;2024-01-30T02:31:07;102884.34;;;-4.02;100.00
80103;BME280;69865;47.648;19.030;2024-01-30T02:31:39;102880.94;;;-4.02;100.00
80103;BME280;69865;47.648;19.030;2024-01-30T02:32:12;102877.47;;;-4.01;100.00
80103;BME280;69865;47.648;19.030;2024-01-30T02:32:44;102882.66;;;-4.00;100.00
80103;BME280;69865;47.648;19.030;2024-01-30T02:33:16;102880.13;;;-3.97;100.00
80103;BME280;69865;47.648;19.030;2024-01-30T02:33:49;102879.28;;;-3.96;100.00
80103;BME280;69865;47.648;19.030;2024-01-30T02:34:21;102884.44;;;-3.96;100.00
80103;BME280;69865;47.648;19.030;2024-01-30T02:34:53;102881.88;;;-3.96;100.00
80103;BME280;69865;47.648;19.030;2024-01-30T02:35:25;102880.13;;;-3.98;100.00
80103;BME280;69865;47.648;19.030;2024-01-30T02:35:57;102886.97;;;-3.99;100.00
80103;BME280;69865;47.648;19.030;2024-01-30T02:36:31;102880.97;;;-3.98;100.00
80103;BME280;69865;47.648;19.030;2024-01-30T02:37:03;102881.03;;;-3.95;100.00
80103;BME280;69865;47.648;19.030;2024-01-30T02:37:35;102877.59;;;-3.94;100.00
80103;BME280;69865;47.648;19.030;2024-01-30T02:38:08;102881.03;;;-3.95;100.00
80103;BME280;69865;47.648;19.030;2024-01-30T02:38:40;102870.72;;;-3.93;100.00
80103;BME280;69865;47.648;19.030;2024-01-30T02:39:12;102873.31;;;-3.95;100.00
80103;BME280;69865;47.648;19.030;2024-01-30T02:39:44;102876.72;;;-3.96;100.00
80103;BME280;69865;47.648;19.030;2024-01-30T02:40:16;102878.47;;;-3.95;100.00
80103;BME280;69865;47.648;19.030;2024-01-30T02:40:48;102889.59;;;-3.96;100.00
80103;BME280;69865;47.648;19.030;2024-01-30T02:41:20;102879.25;;;-3.97;100.00
80103;BME280;69865;47.648;19.030;2024-01-30T02:41:52;102878.38;;;-3.99;100.00
80103;BME280;69865;47.648;19.030;2024-01-30T02:42:24;102878.41;;;-3.96;100.00
80103;BME280;69865;47.648;19.030;2024-01-30T02:42:58;102878.47;;;-3.93;100.00
80103;BME280;69865;47.648;19.030;2024-01-30T02:43:31;102881.91;;;-3.93;100.00
80103;BME280;69865;47.648;19.030;2024-01-30T02:44:03;102879.31;;;-3.93;100.00
80103;BME280;69865;47.648;19.030;2024-01-30T02:44:36;102881.94;;;-3.91;100.00
80103;BME280;69865;47.648;19.030;2024-01-30T02:45:09;102884.50;;;-3.91;100.00
80103;BME280;69865;47.648;19.030;2024-01-30T02:45:41;102879.34;;;-3.90;100.00
80103;BME280;69865;47.648;19.030;2024-01-30T02:46:13;102880.22;;;-3.91;100.00
80103;BME280;69865;47.648;19.030;2024-01-30T02:46:45;102877.66;;;-3.91;100.00